sensor_id;sensor_type;location;lat;lon;timestamp;temperature;humidity
3360;DHT22;1693;49.602;11.046;2023-04-24T00:01:43;10.30;99.90
3360;DHT22;1693;49.602;11.046;2023-04-24T00:04:10;10.20;99.90
3360;DHT22;1693;49.602;11.046;2023-04-24T00:06:41;10.20;99.90
3360;DHT22;1693;49.602;11.046;2023-04-24T00:09:08;10.20;99.90
3360;DHT22;1693;49.602;11.046;2023-04-24T00:11:36;10.20;99.90
3360;DHT22;1693;49.602;11.046;2023-04-24T00:14:04;10.10;99.90
3360;DHT22;1693;49.602;11.046;2023-04-24T00:16:31;10.10;99.90
3360;DHT22;1693;49.602;11.046;2023-04-24T00:18:58;10.10;99.90
3360;DHT22;1693;49.602;11.046;2023-04-24T00:21:27;10.10;99.90
3360;DHT22;1693;49.602;11.046;2023-04-24T00:23:55;10.10;99.90
3360;DHT22;1693;49.602;11.046;2023-04-24T00:26:22;10.10;99.90
3360;DHT22;1693;49.602;11.046;2023-04-24T00:28:49;10.00;99.90
3360;DHT22;1693;49.602;11.046;2023-04-24T00:31:16;10.00;99.90
3360;DHT22;1693;49.602;11.046;2023-04-24T00:33:44;10.10;99.90
3360;DHT22;1693;49.602;11.046;2023-04-24T00:36:12;10.10;99.90
3360;DHT22;1693;49.602;11.046;2023-04-24T00:38:39;10.10;99.90
3360;DHT22;1693;49.602;11.046;2023-04-24T00:41:07;10.00;99.90
3360;DHT22;1693;49.602;11.046;2023-04-24T00:43:35;10.00;99.90
3360;DHT22;1693;49.602;11.046;2023-04-24T00:46:02;10.00;99.90
3360;DHT22;1693;49.602;11.046;2023-04-24T00:48:29;9.90;99.90
3360;DHT22;1693;49.602;11.046;2023-04-24T00:50:57;10.00;99.90
3360;DHT22;1693;49.602;11.046;2023-04-24T00:53:24;9.90;99.90
3360;DHT22;1693;49.602;11.046;2023-04-24T00:55:51;9.80;99.90
3360;DHT22;1693;49.602;11.046;2023-04-24T00:58:20;9.80;99.90
3360;DHT22;1693;49.602;11.046;2023-04-24T01:00:48;9.80;99.90
3360;DHT22;1693;49.602;11.046;2023-04-24T01:03:20;9.80;99.90
3360;DHT22;1693;49.602;11.046;2023-04-24T01:05:48;9.80;99.90
3360;DHT22;1693;49.602;11.046;2023-04-24T01:08:16;9.80;99.90
3360;DHT22;1693;49.602;11.046;2023-04-24T01:10:44;9.80;99.90
3360;DHT22;1693;49.602;11.046;2023-04-24T01:13:11;9.80;99.90
3360;DHT22;1693;49.602;11.046;2023-04-24T01:15:40;9.70;99.90
3360;DHT22;1693;49.602;11.046;2023-04-24T01:18:07;9.70;99.90
3360;DHT22;1693;49.602;11.046;2023-04-24T01:20:34;9.70;99.90
3360;DHT22;1693;49.602;11.046;2023-04-24T01:23:03;9.80;99.90
3360;DHT22;1693;49.602;11.046;2023-04-24T01:25:30;9.70;99.90
3360;DHT22;1693;49.602;11.046;2023-04-24T01:27:58;9.70;99.90
3360;DHT22;1693;49.602;11.046;2023-04-24T01:30:26;9.70;99.90
3360;DHT22;1693;49.602;11.046;2023-04-24T01:32:53;9.70;99.90
3360;DHT22;1693;49.602;11.046;2023-04-24T01:35:21;9.60;99.90
3360;DHT22;1693;49.602;11.046;2023-04-24T01:37:48;9.80;99.90
3360;DHT22;1693;49.602;11.046;2023-04-24T01:40:17;9.80;99.90
3360;DHT22;1693;49.602;11.046;2023-04-24T01:42:45;9.80;99.90
3360;DHT22;1693;49.602;11.046;2023-04-24T01:45:12;9.70;99.90
3360;DHT22;1693;49.602;11.046;2023-04-24T01:47:39;9.80;99.90
3360;DHT22;1693;49.602;11.046;2023-04-24T01:50:07;9.90;99.90
3360;DHT22;1693;49.602;11.046;2023-04-24T01:52:35;9.80;99.90
3360;DHT22;1693;49.602;11.046;2023-04-24T01:55:02;9.80;99.90
3360;DHT22;1693;49.602;11.046;2023-04-24T01:57:31;9.80;99.90
3360;DHT22;1693;49.602;11.046;2023-04-24T01:59:59;9.70;99.90
3360;DHT22;1693;49.602;11.046;2023-04-24T02:02:26;9.80;99.90
3360;DHT22;1693;49.602;11.046;2023-04-24T02:04:55;9.80;99.90
3360;DHT22;1693;49.602;11.046;2023-04-24T02:07:22;9.90;99.90
3360;DHT22;1693;49.602;11.046;2023-04-24T02:09:49;10.00;99.90
3360;DHT22;1693;49.602;11.046;2023-04-24T02:12:16;10.00;99.90
3360;DHT22;1693;49.602;11.046;2023-04-24T02:14:45;9.90;99.90
3360;DHT22;1693;49.602;11.046;2023-04-24T02:17:12;10.00;99.90
3360;DHT22;1693;49.602;11.046;2023-04-24T02:19:41;9.90;99.90
3360;DHT22;1693;49.602;11.046;2023-04-24T02:22:08;9.90;99.90
3360;DHT22;1693;49.602;11.046;2023-04-24T02:24:36;9.90;99.90
3360;DHT22;1693;49.602;11.046;2023-04-24T02:27:03;9.90;99.90
3360;DHT22;1693;49.602;11.046;2023-04-24T02:29:30;9.90;99.90
3360;DHT22;1693;49.602;11.046;2023-04-24T02:31:59;10.00;99.90
3360;DHT22;1693;49.602;11.046;2023-04-24T02:34:26;10.10;99.90
3360;DHT22;1693;49.602;11.046;2023-04-24T02:36:53;10.00;99.90
3360;DHT22;1693;49.602;11.046;2023-04-24T02:39:20;10.00;99.90
3360;DHT22;1693;49.602;11.046;2023-04-24T02:41:47;10.10;99.90
3360;DHT22;1693;49.602;11.046;2023-04-24T02:44:14;10.20;99.90
3360;DHT22;1693;49.602;11.046;2023-04-24T02:46:42;10.20;99.90
3360;DHT22;1693;49.602;11.046;2023-04-24T02:49:11;10.30;99.90
3360;DHT22;1693;49.602;11.046;2023-04-24T02:51:38;10.20;99.90
3360;DHT22;1693;49.602;11.046;2023-04-24T02:54:07;10.30;99.90
3360;DHT22;1693;49.602;11.046;2023-04-24T02:56:35;10.30;99.90
3360;DHT22;1693;49.602;11.046;2023-04-24T02:59:03;10.20;99.90
3360;DHT22;1693;49.602;11.046;2023-04-24T03:01:30;10.20;99.90
3360;DHT22;1693;49.602;11.046;2023-04-24T03:03:57;10.10;99.90
3360;DHT22;1693;49.602;11.046;2023-04-24T03:06:26;10.20;99.90
3360;DHT22;1693;49.602;11.046;2023-04-24T03:08:53;10.00;99.90
3360;DHT22;1693;49.602;11.046;2023-04-24T03:11:20;10.00;99.90
3360;DHT22;1693;49.602;11.046;2023-04-24T03:13:47;9.90;99.90
3360;DHT22;1693;49.602;11.046;2023-04-24T03:16:14;9.80;99.90
3360;DHT22;1693;49.602;11.046;2023-04-24T03:18:41;9.80;99.90
3360;DHT22;1693;49.602;11.046;2023-04-24T03:21:08;9.70;99.90
3360;DHT22;1693;49.602;11.046;2023-04-24T03:23:37;9.70;99.90
3360;DHT22;1693;49.602;11.046;2023-04-24T03:26:04;9.60;99.90
3360;DHT22;1693;49.602;11.046;2023-04-24T03:28:31;9.60;99.90
3360;DHT22;1693;49.602;11.046;2023-04-24T03:30:58;9.50;99.90
3360;DHT22;1693;49.602;11.046;2023-04-24T03:33:26;9.60;99.90
3360;DHT22;1693;49.602;11.046;2023-04-24T03:35:53;9.50;99.90
3360;DHT22;1693;49.602;11.046;2023-04-24T03:38:20;9.50;99.90
3360;DHT22;1693;49.602;11.046;2023-04-24T03:40:51;9.40;99.90
3360;DHT22;1693;49.602;11.046;2023-04-24T03:43:18;9.40;99.90
3360;DHT22;1693;49.602;11.046;2023-04-24T03:45:45;9.30;99.90
3360;DHT22;1693;49.602;11.046;2023-04-24T03:48:12;9.30;99.90
3360;DHT22;1693;49.602;11.046;2023-04-24T03:50:39;9.30;99.90
3360;DHT22;1693;49.602;11.046;2023-04-24T03:53:06;9.30;99.90
3360;DHT22;1693;49.602;11.046;2023-04-24T03:55:33;9.30;99.90
3360;DHT22;1693;49.602;11.046;2023-04-24T03:58:02;9.20;99.90
3360;DHT22;1693;49.602;11.046;2023-04-24T04:00:29;9.20;99.90
3360;DHT22;1693;49.602;11.046;2023-04-24T04:02:59;9.20;99.90
3360;DHT22;1693;49.602;11.046;2023-04-24T04:05:26;9.10;99.90
3360;DHT22;1693;49.602;11.046;2023-04-24T04:07:53;9.10;99.90
3360;DHT22;1693;49.602;11.046;2023-04-24T04:10:20;9.10;99.90
3360;DHT22;1693;49.602;11.046;2023-04-24T04:12:47;9.10;99.90
3360;DHT22;1693;49.602;11.046;2023-04-24T04:15:15;9.10;99.90
3360;DHT22;1693;49.602;11.046;2023-04-24T04:17:43;9.10;99.90
3360;DHT22;1693;49.602;11.046;2023-04-24T04:20:11;9.10;99.90
3360;DHT22;1693;49.602;11.046;2023-04-24T04:22:39;9.10;99.90
3360;DHT22;1693;49.602;11.046;2023-04-24T04:25:07;9.10;99.90
3360;DHT22;1693;49.602;11.046;2023-04-24T04:27:34;9.10;99.90
3360;DHT22;1693;49.602;11.046;2023-04-24T04:30:02;9.00;99.90
3360;DHT22;1693;49.602;11.046;2023-04-24T04:32:31;9.00;99.90
3360;DHT22;1693;49.602;11.046;2023-04-24T04:34:59;8.90;99.90
3360;DHT22;1693;49.602;11.046;2023-04-24T04:37:28;9.00;99.90
3360;DHT22;1693;49.602;11.046;2023-04-24T04:39:56;8.90;99.90
3360;DHT22;1693;49.602;11.046;2023-04-24T04:42:24;8.90;99.90
3360;DHT22;1693;49.602;11.046;2023-04-24T04:44:53;8.90;99.90
3360;DHT22;1693;49.602;11.046;2023-04-24T04:47:22;8.90;99.90
3360;DHT22;1693;49.602;11.046;2023-04-24T04:49:50;9.00;99.90
3360;DHT22;1693;49.602;11.046;2023-04-24T04:52:18;9.00;99.90
3360;DHT22;1693;49.602;11.046;2023-04-24T04:54:45;9.00;99.90
3360;DHT22;1693;49.602;11.046;2023-04-24T04:57:12;9.10;99.90
3360;DHT22;1693;49.602;11.046;2023-04-24T04:59:40;9.10;99.90
3360;DHT22;1693;49.602;11.046;2023-04-24T05:02:07;9.10;99.90
3360;DHT22;1693;49.602;11.046;2023-04-24T05:04:34;9.10;99.90
3360;DHT22;1693;49.602;11.046;2023-04-24T05:07:03;9.10;99.90
3360;DHT22;1693;49.602;11.046;2023-04-24T05:09:31;9.10;99.90
3360;DHT22;1693;49.602;11.046;2023-04-24T05:11:58;9.10;99.90
3360;DHT22;1693;49.602;11.046;2023-04-24T05:14:25;9.30;99.90
3360;DHT22;1693;49.602;11.046;2023-04-24T05:16:52;9.30;99.90
3360;DHT22;1693;49.602;11.046;2023-04-24T05:19:19;9.30;99.90
3360;DHT22;1693;49.602;11.046;2023-04-24T05:21:46;9.40;99.90
3360;DHT22;1693;49.602;11.046;2023-04-24T05:24:16;9.40;99.90
3360;DHT22;1693;49.602;11.046;2023-04-24T05:29:10;9.60;99.90
3360;DHT22;1693;49.602;11.046;2023-04-24T05:31:38;9.70;99.90
3360;DHT22;1693;49.602;11.046;2023-04-24T05:34:05;9.90;99.90
3360;DHT22;1693;49.602;11.046;2023-04-24T05:36:33;9.90;99.90
3360;DHT22;1693;49.602;11.046;2023-04-24T05:39:00;10.20;99.90
3360;DHT22;1693;49.602;11.046;2023-04-24T05:41:29;10.30;99.90
3360;DHT22;1693;49.602;11.046;2023-04-24T05:43:56;10.50;99.90
3360;DHT22;1693;49.602;11.046;2023-04-24T05:46:23;10.60;99.90
3360;DHT22;1693;49.602;11.046;2023-04-24T05:48:50;10.70;99.90
3360;DHT22;1693;49.602;11.046;2023-04-24T05:51:17;10.80;99.90
3360;DHT22;1693;49.602;11.046;2023-04-24T05:53:44;10.80;99.90
3360;DHT22;1693;49.602;11.046;2023-04-24T05:56:11;10.90;99.90
3360;DHT22;1693;49.602;11.046;2023-04-24T05:58:40;10.80;99.90
3360;DHT22;1693;49.602;11.046;2023-04-24T06:01:07;10.90;99.90
3360;DHT22;1693;49.602;11.046;2023-04-24T06:03:35;11.00;99.90
3360;DHT22;1693;49.602;11.046;2023-04-24T06:06:03;11.10;99.90
3360;DHT22;1693;49.602;11.046;2023-04-24T06:08:31;11.10;99.90
3360;DHT22;1693;49.602;11.046;2023-04-24T06:10:58;11.20;99.90
3360;DHT22;1693;49.602;11.046;2023-04-24T06:13:26;11.30;99.90
3360;DHT22;1693;49.602;11.046;2023-04-24T06:15:54;11.30;99.90
3360;DHT22;1693;49.602;11.046;2023-04-24T06:18:21;11.30;99.90
3360;DHT22;1693;49.602;11.046;2023-04-24T06:20:48;11.10;99.90
3360;DHT22;1693;49.602;11.046;2023-04-24T06:23:15;11.10;99.90
3360;DHT22;1693;49.602;11.046;2023-04-24T06:25:42;11.10;99.90
3360;DHT22;1693;49.602;11.046;2023-04-24T06:28:09;11.20;99.90
3360;DHT22;1693;49.602;11.046;2023-04-24T06:30:37;11.20;99.90
3360;DHT22;1693;49.602;11.046;2023-04-24T06:33:05;11.20;99.90
3360;DHT22;1693;49.602;11.046;2023-04-24T06:35:32;11.20;99.90
3360;DHT22;1693;49.602;11.046;2023-04-24T06:37:59;11.20;99.90
3360;DHT22;1693;49.602;11.046;2023-04-24T06:40:26;11.10;99.90
3360;DHT22;1693;49.602;11.046;2023-04-24T06:42:54;11.00;99.90
3360;DHT22;1693;49.602;11.046;2023-04-24T06:45:22;10.90;99.90
3360;DHT22;1693;49.602;11.046;2023-04-24T06:47:49;10.90;99.90
3360;DHT22;1693;49.602;11.046;2023-04-24T06:50:18;10.90;99.90
3360;DHT22;1693;49.602;11.046;2023-04-24T06:52:45;11.00;99.90
3360;DHT22;1693;49.602;11.046;2023-04-24T06:55:12;11.10;99.90
3360;DHT22;1693;49.602;11.046;2023-04-24T06:57:41;11.30;99.90
3360;DHT22;1693;49.602;11.046;2023-04-24T07:00:09;11.40;99.90
3360;DHT22;1693;49.602;11.046;2023-04-24T07:02:36;11.40;99.90
3360;DHT22;1693;49.602;11.046;2023-04-24T07:05:04;11.50;99.90
3360;DHT22;1693;49.602;11.046;2023-04-24T07:07:33;11.60;99.90
3360;DHT22;1693;49.602;11.046;2023-04-24T07:10:03;11.70;99.90
3360;DHT22;1693;49.602;11.046;2023-04-24T07:12:31;11.70;99.90
3360;DHT22;1693;49.602;11.046;2023-04-24T07:14:58;11.70;99.90
3360;DHT22;1693;49.602;11.046;2023-04-24T07:17:25;11.80;99.90
3360;DHT22;1693;49.602;11.046;2023-04-24T07:19:52;11.90;99.90
3360;DHT22;1693;49.602;11.046;2023-04-24T07:22:19;12.00;99.90
3360;DHT22;1693;49.602;11.046;2023-04-24T07:24:48;12.00;99.90
3360;DHT22;1693;49.602;11.046;2023-04-24T07:27:16;12.10;99.90
3360;DHT22;1693;49.602;11.046;2023-04-24T07:29:43;12.30;99.90
3360;DHT22;1693;49.602;11.046;2023-04-24T07:32:10;12.10;99.90
3360;DHT22;1693;49.602;11.046;2023-04-24T07:34:37;12.30;99.90
3360;DHT22;1693;49.602;11.046;2023-04-24T07:37:04;12.50;99.90
3360;DHT22;1693;49.602;11.046;2023-04-24T07:39:31;12.50;99.90
3360;DHT22;1693;49.602;11.046;2023-04-24T07:42:00;12.30;99.90
3360;DHT22;1693;49.602;11.046;2023-04-24T07:44:27;12.10;99.90
3360;DHT22;1693;49.602;11.046;2023-04-24T07:46:55;12.10;99.90
3360;DHT22;1693;49.602;11.046;2023-04-24T07:49:22;12.10;99.90
3360;DHT22;1693;49.602;11.046;2023-04-24T07:51:49;12.10;99.90
3360;DHT22;1693;49.602;11.046;2023-04-24T07:54:16;12.20;99.90
3360;DHT22;1693;49.602;11.046;2023-04-24T07:56:43;12.20;99.90
3360;DHT22;1693;49.602;11.046;2023-04-24T07:59:12;12.30;99.90
3360;DHT22;1693;49.602;11.046;2023-04-24T08:01:39;12.40;99.90
3360;DHT22;1693;49.602;11.046;2023-04-24T08:04:06;12.80;99.90
3360;DHT22;1693;49.602;11.046;2023-04-24T08:06:33;12.90;99.90
3360;DHT22;1693;49.602;11.046;2023-04-24T08:09:00;13.20;99.90
3360;DHT22;1693;49.602;11.046;2023-04-24T08:11:27;13.50;99.90
3360;DHT22;1693;49.602;11.046;2023-04-24T08:13:54;13.50;99.90
3360;DHT22;1693;49.602;11.046;2023-04-24T08:16:23;13.70;99.90
3360;DHT22;1693;49.602;11.046;2023-04-24T08:18:50;13.80;99.90
3360;DHT22;1693;49.602;11.046;2023-04-24T08:21:17;13.50;99.90
3360;DHT22;1693;49.602;11.046;2023-04-24T08:23:46;12.90;99.90
3360;DHT22;1693;49.602;11.046;2023-04-24T08:26:13;12.70;99.90
3360;DHT22;1693;49.602;11.046;2023-04-24T08:28:40;12.70;99.90
3360;DHT22;1693;49.602;11.046;2023-04-24T08:31:07;12.90;99.90
3360;DHT22;1693;49.602;11.046;2023-04-24T08:33:36;13.00;99.90
3360;DHT22;1693;49.602;11.046;2023-04-24T08:36:04;13.00;99.90
3360;DHT22;1693;49.602;11.046;2023-04-24T08:38:32;12.80;99.90
3360;DHT22;1693;49.602;11.046;2023-04-24T08:41:00;12.60;99.90
3360;DHT22;1693;49.602;11.046;2023-04-24T08:46:50;12.60;99.90
3360;DHT22;1693;49.602;11.046;2023-04-24T08:49:19;12.80;99.90
3360;DHT22;1693;49.602;11.046;2023-04-24T08:51:46;13.00;99.90
3360;DHT22;1693;49.602;11.046;2023-04-24T08:54:15;13.20;99.90
3360;DHT22;1693;49.602;11.046;2023-04-24T08:56:44;13.20;99.90
3360;DHT22;1693;49.602;11.046;2023-04-24T08:59:12;13.10;99.90
3360;DHT22;1693;49.602;11.046;2023-04-24T09:04:08;12.90;99.90
3360;DHT22;1693;49.602;11.046;2023-04-24T09:06:39;12.70;99.90
3360;DHT22;1693;49.602;11.046;2023-04-24T09:09:07;12.60;99.90
3360;DHT22;1693;49.602;11.046;2023-04-24T09:11:36;12.80;99.90
3360;DHT22;1693;49.602;11.046;2023-04-24T09:14:04;12.90;99.90
3360;DHT22;1693;49.602;11.046;2023-04-24T09:16:31;13.20;99.90
3360;DHT22;1693;49.602;11.046;2023-04-24T09:18:58;13.60;99.90
3360;DHT22;1693;49.602;11.046;2023-04-24T09:21:31;13.70;99.90
3360;DHT22;1693;49.602;11.046;2023-04-24T09:24:02;13.80;99.90
3360;DHT22;1693;49.602;11.046;2023-04-24T09:26:29;14.20;99.90
3360;DHT22;1693;49.602;11.046;2023-04-24T09:28:59;14.60;99.90
3360;DHT22;1693;49.602;11.046;2023-04-24T09:31:27;14.60;99.90
3360;DHT22;1693;49.602;11.046;2023-04-24T09:33:56;14.10;99.90
3360;DHT22;1693;49.602;11.046;2023-04-24T09:36:31;13.90;99.90
3360;DHT22;1693;49.602;11.046;2023-04-24T09:39:01;13.30;99.90
3360;DHT22;1693;49.602;11.046;2023-04-24T09:41:31;13.40;99.90
3360;DHT22;1693;49.602;11.046;2023-04-24T09:44:11;13.50;99.90
3360;DHT22;1693;49.602;11.046;2023-04-24T09:46:38;13.60;99.90
3360;DHT22;1693;49.602;11.046;2023-04-24T09:49:10;13.50;99.90
3360;DHT22;1693;49.602;11.046;2023-04-24T09:51:38;13.60;99.90
3360;DHT22;1693;49.602;11.046;2023-04-24T09:54:14;13.50;99.90
3360;DHT22;1693;49.602;11.046;2023-04-24T09:56:44;13.30;99.90
3360;DHT22;1693;49.602;11.046;2023-04-24T09:59:13;13.00;99.90
3360;DHT22;1693;49.602;11.046;2023-04-24T10:01:41;12.90;99.90
3360;DHT22;1693;49.602;11.046;2023-04-24T10:04:18;12.90;99.90
3360;DHT22;1693;49.602;11.046;2023-04-24T10:06:52;13.00;99.90
3360;DHT22;1693;49.602;11.046;2023-04-24T10:09:23;13.10;99.90
3360;DHT22;1693;49.602;11.046;2023-04-24T10:11:52;13.40;99.90
3360;DHT22;1693;49.602;11.046;2023-04-24T10:14:21;13.80;99.90
3360;DHT22;1693;49.602;11.046;2023-04-24T10:16:49;14.20;99.90
3360;DHT22;1693;49.602;11.046;2023-04-24T10:19:18;14.30;99.90
3360;DHT22;1693;49.602;11.046;2023-04-24T10:21:46;13.90;99.90
3360;DHT22;1693;49.602;11.046;2023-04-24T10:24:14;13.40;99.90
3360;DHT22;1693;49.602;11.046;2023-04-24T10:26:43;13.20;99.90
3360;DHT22;1693;49.602;11.046;2023-04-24T10:29:11;12.90;99.90
3360;DHT22;1693;49.602;11.046;2023-04-24T10:31:39;12.80;99.90
3360;DHT22;1693;49.602;11.046;2023-04-24T10:34:08;12.90;99.90
3360;DHT22;1693;49.602;11.046;2023-04-24T10:36:38;12.90;99.90
3360;DHT22;1693;49.602;11.046;2023-04-24T10:39:09;12.80;99.90
3360;DHT22;1693;49.602;11.046;2023-04-24T10:41:38;13.00;99.90
3360;DHT22;1693;49.602;11.046;2023-04-24T10:44:07;13.20;99.90
3360;DHT22;1693;49.602;11.046;2023-04-24T10:46:36;12.90;99.90
3360;DHT22;1693;49.602;11.046;2023-04-24T10:49:04;13.00;99.90
3360;DHT22;1693;49.602;11.046;2023-04-24T10:51:46;12.80;99.90
3360;DHT22;1693;49.602;11.046;2023-04-24T10:54:25;13.00;99.90
3360;DHT22;1693;49.602;11.046;2023-04-24T10:56:52;13.00;99.90
3360;DHT22;1693;49.602;11.046;2023-04-24T10:59:27;13.20;99.90
3360;DHT22;1693;49.602;11.046;2023-04-24T11:02:03;13.70;99.90
3360;DHT22;1693;49.602;11.046;2023-04-24T11:04:31;13.40;99.90
3360;DHT22;1693;49.602;11.046;2023-04-24T11:06:58;13.40;99.90
3360;DHT22;1693;49.602;11.046;2023-04-24T11:09:27;13.00;99.90
3360;DHT22;1693;49.602;11.046;2023-04-24T11:12:04;12.80;99.90
3360;DHT22;1693;49.602;11.046;2023-04-24T11:15:02;13.30;99.90
3360;DHT22;1693;49.602;11.046;2023-04-24T11:17:31;13.30;99.90
3360;DHT22;1693;49.602;11.046;2023-04-24T11:20:02;13.50;99.90
3360;DHT22;1693;49.602;11.046;2023-04-24T11:22:33;13.90;99.90
3360;DHT22;1693;49.602;11.046;2023-04-24T11:25:01;14.00;99.90
3360;DHT22;1693;49.602;11.046;2023-04-24T11:27:30;14.20;99.90
3360;DHT22;1693;49.602;11.046;2023-04-24T11:30:02;14.10;99.90
3360;DHT22;1693;49.602;11.046;2023-04-24T11:32:33;13.90;99.90
3360;DHT22;1693;49.602;11.046;2023-04-24T11:35:02;13.70;99.90
3360;DHT22;1693;49.602;11.046;2023-04-24T11:37:34;13.50;99.90
3360;DHT22;1693;49.602;11.046;2023-04-24T11:40:02;13.40;99.90
3360;DHT22;1693;49.602;11.046;2023-04-24T11:42:34;13.40;99.90
3360;DHT22;1693;49.602;11.046;2023-04-24T11:45:07;13.50;99.90
3360;DHT22;1693;49.602;11.046;2023-04-24T11:47:36;13.40;99.90
3360;DHT22;1693;49.602;11.046;2023-04-24T11:50:05;13.10;99.90
3360;DHT22;1693;49.602;11.046;2023-04-24T11:52:33;12.70;99.90
3360;DHT22;1693;49.602;11.046;2023-04-24T11:55:04;12.60;99.90
3360;DHT22;1693;49.602;11.046;2023-04-24T11:57:31;12.70;99.90
3360;DHT22;1693;49.602;11.046;2023-04-24T12:00:02;12.90;99.90
3360;DHT22;1693;49.602;11.046;2023-04-24T12:02:29;12.80;99.90
3360;DHT22;1693;49.602;11.046;2023-04-24T12:04:56;13.20;99.90
3360;DHT22;1693;49.602;11.046;2023-04-24T12:07:23;13.60;99.90
3360;DHT22;1693;49.602;11.046;2023-04-24T12:09:56;13.90;99.90
3360;DHT22;1693;49.602;11.046;2023-04-24T12:12:26;15.00;99.90
3360;DHT22;1693;49.602;11.046;2023-04-24T12:14:55;15.80;99.90
3360;DHT22;1693;49.602;11.046;2023-04-24T12:17:27;17.40;99.90
3360;DHT22;1693;49.602;11.046;2023-04-24T12:19:57;17.30;99.50
3360;DHT22;1693;49.602;11.046;2023-04-24T12:22:26;17.20;99.30
3360;DHT22;1693;49.602;11.046;2023-04-24T12:25:01;16.80;99.10
3360;DHT22;1693;49.602;11.046;2023-04-24T12:27:32;16.50;99.80
3360;DHT22;1693;49.602;11.046;2023-04-24T12:30:01;15.40;99.90
3360;DHT22;1693;49.602;11.046;2023-04-24T12:32:31;14.60;99.90
3360;DHT22;1693;49.602;11.046;2023-04-24T12:34:58;14.00;99.90
3360;DHT22;1693;49.602;11.046;2023-04-24T12:37:26;13.70;99.90
3360;DHT22;1693;49.602;11.046;2023-04-24T12:40:04;13.50;99.90
3360;DHT22;1693;49.602;11.046;2023-04-24T12:42:33;13.90;99.90
3360;DHT22;1693;49.602;11.046;2023-04-24T12:45:03;14.00;99.90
3360;DHT22;1693;49.602;11.046;2023-04-24T12:47:32;13.70;99.90
3360;DHT22;1693;49.602;11.046;2023-04-24T12:50:00;13.10;99.90
3360;DHT22;1693;49.602;11.046;2023-04-24T12:52:28;13.20;99.90
3360;DHT22;1693;49.602;11.046;2023-04-24T12:54:58;12.90;99.90
3360;DHT22;1693;49.602;11.046;2023-04-24T12:57:31;12.60;99.90
3360;DHT22;1693;49.602;11.046;2023-04-24T12:59:58;12.60;99.90
3360;DHT22;1693;49.602;11.046;2023-04-24T13:02:27;12.50;99.90
3360;DHT22;1693;49.602;11.046;2023-04-24T13:04:57;12.60;99.90
3360;DHT22;1693;49.602;11.046;2023-04-24T13:07:25;12.60;99.90
3360;DHT22;1693;49.602;11.046;2023-04-24T13:09:54;12.70;99.90
3360;DHT22;1693;49.602;11.046;2023-04-24T13:12:21;13.10;99.90
3360;DHT22;1693;49.602;11.046;2023-04-24T13:14:49;13.70;99.90
3360;DHT22;1693;49.602;11.046;2023-04-24T13:17:16;14.00;99.90
3360;DHT22;1693;49.602;11.046;2023-04-24T13:19:44;14.10;99.90
3360;DHT22;1693;49.602;11.046;2023-04-24T13:22:13;13.80;99.90
3360;DHT22;1693;49.602;11.046;2023-04-24T13:24:40;13.40;99.90
3360;DHT22;1693;49.602;11.046;2023-04-24T13:27:08;13.20;99.90
3360;DHT22;1693;49.602;11.046;2023-04-24T13:29:57;13.00;99.90
3360;DHT22;1693;49.602;11.046;2023-04-24T13:32:58;13.10;99.90
3360;DHT22;1693;49.602;11.046;2023-04-24T13:35:25;12.90;99.90
3360;DHT22;1693;49.602;11.046;2023-04-24T13:37:54;12.60;99.90
3360;DHT22;1693;49.602;11.046;2023-04-24T13:40:39;12.70;99.90
3360;DHT22;1693;49.602;11.046;2023-04-24T13:43:06;12.80;99.90
3360;DHT22;1693;49.602;11.046;2023-04-24T13:45:41;12.90;99.90
3360;DHT22;1693;49.602;11.046;2023-04-24T13:48:08;13.40;99.90
3360;DHT22;1693;49.602;11.046;2023-04-24T13:50:35;14.00;99.90
3360;DHT22;1693;49.602;11.046;2023-04-24T13:53:04;15.00;99.90
3360;DHT22;1693;49.602;11.046;2023-04-24T13:55:31;16.00;99.90
3360;DHT22;1693;49.602;11.046;2023-04-24T13:57:58;16.40;99.90
3360;DHT22;1693;49.602;11.046;2023-04-24T14:00:25;16.90;99.00
3360;DHT22;1693;49.602;11.046;2023-04-24T14:02:52;17.30;97.70
3360;DHT22;1693;49.602;11.046;2023-04-24T14:05:19;18.40;96.20
3360;DHT22;1693;49.602;11.046;2023-04-24T14:07:47;18.30;93.90
3360;DHT22;1693;49.602;11.046;2023-04-24T14:10:16;19.10;93.10
3360;DHT22;1693;49.602;11.046;2023-04-24T14:12:43;20.40;91.80
3360;DHT22;1693;49.602;11.046;2023-04-24T14:15:10;20.30;86.60
3360;DHT22;1693;49.602;11.046;2023-04-24T14:17:38;19.30;90.00
3360;DHT22;1693;49.602;11.046;2023-04-24T14:20:07;18.90;89.40
3360;DHT22;1693;49.602;11.046;2023-04-24T14:22:37;19.30;91.00
3360;DHT22;1693;49.602;11.046;2023-04-24T14:25:19;19.10;88.90
3360;DHT22;1693;49.602;11.046;2023-04-24T14:27:48;17.80;90.80
3360;DHT22;1693;49.602;11.046;2023-04-24T14:30:47;16.40;91.60
3360;DHT22;1693;49.602;11.046;2023-04-24T14:33:29;15.70;94.30
3360;DHT22;1693;49.602;11.046;2023-04-24T14:35:57;15.10;95.40
3360;DHT22;1693;49.602;11.046;2023-04-24T14:41:41;13.80;98.80
3360;DHT22;1693;49.602;11.046;2023-04-24T14:44:09;13.10;99.90
3360;DHT22;1693;49.602;11.046;2023-04-24T14:46:36;12.90;99.90
3360;DHT22;1693;49.602;11.046;2023-04-24T14:49:03;12.80;99.90
3360;DHT22;1693;49.602;11.046;2023-04-24T14:51:30;12.90;99.90
3360;DHT22;1693;49.602;11.046;2023-04-24T14:53:58;13.00;99.90
3360;DHT22;1693;49.602;11.046;2023-04-24T14:56:26;13.30;99.90
3360;DHT22;1693;49.602;11.046;2023-04-24T14:58:55;13.40;99.90
3360;DHT22;1693;49.602;11.046;2023-04-24T15:01:22;13.60;99.90
3360;DHT22;1693;49.602;11.046;2023-04-24T15:03:51;14.50;99.90
3360;DHT22;1693;49.602;11.046;2023-04-24T15:06:18;16.70;98.60
3360;DHT22;1693;49.602;11.046;2023-04-24T15:08:46;18.20;95.60
3360;DHT22;1693;49.602;11.046;2023-04-24T15:11:13;20.00;92.30
3360;DHT22;1693;49.602;11.046;2023-04-24T15:13:40;19.60;90.30
3360;DHT22;1693;49.602;11.046;2023-04-24T15:16:08;19.20;88.00
3360;DHT22;1693;49.602;11.046;2023-04-24T15:18:35;17.10;90.40
3360;DHT22;1693;49.602;11.046;2023-04-24T15:21:02;17.10;92.60
3360;DHT22;1693;49.602;11.046;2023-04-24T15:23:30;15.90;92.80
3360;DHT22;1693;49.602;11.046;2023-04-24T15:25:57;15.50;94.30
3360;DHT22;1693;49.602;11.046;2023-04-24T15:28:25;14.70;96.20
3360;DHT22;1693;49.602;11.046;2023-04-24T15:30:52;14.00;96.90
3360;DHT22;1693;49.602;11.046;2023-04-24T15:33:20;13.60;98.00
3360;DHT22;1693;49.602;11.046;2023-04-24T15:35:48;13.30;99.20
3360;DHT22;1693;49.602;11.046;2023-04-24T15:38:16;13.30;99.90
3360;DHT22;1693;49.602;11.046;2023-04-24T15:40:44;13.00;99.90
3360;DHT22;1693;49.602;11.046;2023-04-24T15:43:13;12.90;99.90
3360;DHT22;1693;49.602;11.046;2023-04-24T15:45:43;12.80;99.90
3360;DHT22;1693;49.602;11.046;2023-04-24T15:48:10;12.60;99.90
3360;DHT22;1693;49.602;11.046;2023-04-24T15:50:39;12.40;99.90
3360;DHT22;1693;49.602;11.046;2023-04-24T15:53:06;12.40;99.90
3360;DHT22;1693;49.602;11.046;2023-04-24T15:55:33;12.30;99.90
3360;DHT22;1693;49.602;11.046;2023-04-24T15:58:01;12.10;99.90
3360;DHT22;1693;49.602;11.046;2023-04-24T16:00:29;11.90;99.90
3360;DHT22;1693;49.602;11.046;2023-04-24T16:02:59;11.80;99.90
3360;DHT22;1693;49.602;11.046;2023-04-24T16:05:26;11.90;99.90
3360;DHT22;1693;49.602;11.046;2023-04-24T16:07:54;11.90;99.90
3360;DHT22;1693;49.602;11.046;2023-04-24T16:10:21;12.00;99.90